sensor_id;sensor_type;location;lat;lon;timestamp;temperature;humidity
56512;DHT22;42408;53.238;5.686;2023-03-01T00:01:53;0.50;99.90
56512;DHT22;42408;53.238;5.686;2023-03-01T00:04:18;0.50;99.90
56512;DHT22;42408;53.238;5.686;2023-03-01T00:06:44;0.50;99.90
56512;DHT22;42408;53.238;5.686;2023-03-01T00:09:15;0.50;99.90
56512;DHT22;42408;53.238;5.686;2023-03-01T00:11:41;0.40;99.90
56512;DHT22;42408;53.238;5.686;2023-03-01T00:14:06;0.40;99.90
56512;DHT22;42408;53.238;5.686;2023-03-01T00:16:35;0.40;99.90
56512;DHT22;42408;53.238;5.686;2023-03-01T00:19:02;0.40;99.90
56512;DHT22;42408;53.238;5.686;2023-03-01T00:21:28;0.40;99.90
56512;DHT22;42408;53.238;5.686;2023-03-01T00:23:54;0.40;99.90
56512;DHT22;42408;53.238;5.686;2023-03-01T00:26:22;0.30;99.90
56512;DHT22;42408;53.238;5.686;2023-03-01T00:28:48;0.30;99.90
56512;DHT22;42408;53.238;5.686;2023-03-01T00:31:20;0.30;99.90
56512;DHT22;42408;53.238;5.686;2023-03-01T00:33:46;0.30;99.90
56512;DHT22;42408;53.238;5.686;2023-03-01T00:36:14;0.20;99.90
56512;DHT22;42408;53.238;5.686;2023-03-01T00:38:42;0.10;99.90
56512;DHT22;42408;53.238;5.686;2023-03-01T00:41:14;0.10;99.90
56512;DHT22;42408;53.238;5.686;2023-03-01T00:43:40;0.10;99.90
56512;DHT22;42408;53.238;5.686;2023-03-01T00:46:11;0.10;99.90
56512;DHT22;42408;53.238;5.686;2023-03-01T00:48:38;0.10;99.90
56512;DHT22;42408;53.238;5.686;2023-03-01T00:51:17;0.00;99.90
56512;DHT22;42408;53.238;5.686;2023-03-01T00:53:44;0.00;99.90
56512;DHT22;42408;53.238;5.686;2023-03-01T00:56:12;0.00;99.90
56512;DHT22;42408;53.238;5.686;2023-03-01T00:58:37;0.00;99.90
56512;DHT22;42408;53.238;5.686;2023-03-01T01:01:10;0.00;99.90
56512;DHT22;42408;53.238;5.686;2023-03-01T01:03:51;0.00;99.90
56512;DHT22;42408;53.238;5.686;2023-03-01T01:06:28;0.00;99.90
56512;DHT22;42408;53.238;5.686;2023-03-01T01:08:54;-0.10;99.90
56512;DHT22;42408;53.238;5.686;2023-03-01T01:11:22;-0.10;99.90
56512;DHT22;42408;53.238;5.686;2023-03-01T01:13:48;-0.10;99.90
56512;DHT22;42408;53.238;5.686;2023-03-01T01:16:15;-0.10;99.90
56512;DHT22;42408;53.238;5.686;2023-03-01T01:18:41;-0.10;99.90
56512;DHT22;42408;53.238;5.686;2023-03-01T01:21:09;-0.10;99.90
56512;DHT22;42408;53.238;5.686;2023-03-01T01:23:36;-0.10;99.90
56512;DHT22;42408;53.238;5.686;2023-03-01T01:26:06;-0.10;99.90
56512;DHT22;42408;53.238;5.686;2023-03-01T01:28:31;-0.20;99.90
56512;DHT22;42408;53.238;5.686;2023-03-01T01:30:57;-0.10;99.90
56512;DHT22;42408;53.238;5.686;2023-03-01T01:33:23;-0.20;99.90
56512;DHT22;42408;53.238;5.686;2023-03-01T01:35:48;-0.10;99.90
56512;DHT22;42408;53.238;5.686;2023-03-01T01:38:14;-0.10;99.90
56512;DHT22;42408;53.238;5.686;2023-03-01T01:40:45;-0.20;99.90
56512;DHT22;42408;53.238;5.686;2023-03-01T01:43:20;-0.20;99.90
56512;DHT22;42408;53.238;5.686;2023-03-01T01:45:46;-0.20;99.90
56512;DHT22;42408;53.238;5.686;2023-03-01T01:48:16;-0.20;99.90
56512;DHT22;42408;53.238;5.686;2023-03-01T01:50:43;-0.20;99.90
56512;DHT22;42408;53.238;5.686;2023-03-01T01:53:14;-0.20;99.90
56512;DHT22;42408;53.238;5.686;2023-03-01T01:55:44;-0.20;99.90
56512;DHT22;42408;53.238;5.686;2023-03-01T01:58:14;-0.20;99.90
56512;DHT22;42408;53.238;5.686;2023-03-01T02:00:41;-0.20;99.90
56512;DHT22;42408;53.238;5.686;2023-03-01T02:03:10;-0.30;99.90
56512;DHT22;42408;53.238;5.686;2023-03-01T02:05:45;-0.30;99.90
56512;DHT22;42408;53.238;5.686;2023-03-01T02:08:14;-0.20;99.90
56512;DHT22;42408;53.238;5.686;2023-03-01T02:10:41;-0.30;99.90
56512;DHT22;42408;53.238;5.686;2023-03-01T02:13:08;-0.30;99.90
56512;DHT22;42408;53.238;5.686;2023-03-01T02:15:35;-0.30;99.90
56512;DHT22;42408;53.238;5.686;2023-03-01T02:18:02;-0.30;99.90
56512;DHT22;42408;53.238;5.686;2023-03-01T02:23:00;-0.30;99.90
56512;DHT22;42408;53.238;5.686;2023-03-01T02:30:41;-0.30;99.90
56512;DHT22;42408;53.238;5.686;2023-03-01T02:33:28;-0.30;99.90
56512;DHT22;42408;53.238;5.686;2023-03-01T02:35:59;-0.30;99.90
56512;DHT22;42408;53.238;5.686;2023-03-01T02:38:26;-0.40;99.90
56512;DHT22;42408;53.238;5.686;2023-03-01T02:40:52;-0.40;99.90
56512;DHT22;42408;53.238;5.686;2023-03-01T02:43:22;-0.40;99.90
56512;DHT22;42408;53.238;5.686;2023-03-01T02:45:50;-0.40;99.90
56512;DHT22;42408;53.238;5.686;2023-03-01T02:48:17;-0.50;99.90
56512;DHT22;42408;53.238;5.686;2023-03-01T02:51:05;-0.50;99.90
56512;DHT22;42408;53.238;5.686;2023-03-01T02:56:05;-0.50;99.90
56512;DHT22;42408;53.238;5.686;2023-03-01T02:58:31;-0.60;99.90
56512;DHT22;42408;53.238;5.686;2023-03-01T03:00:56;-0.60;99.90
56512;DHT22;42408;53.238;5.686;2023-03-01T03:03:22;-0.60;99.90
56512;DHT22;42408;53.238;5.686;2023-03-01T03:05:48;-0.60;99.90
56512;DHT22;42408;53.238;5.686;2023-03-01T03:08:14;-0.70;99.90
56512;DHT22;42408;53.238;5.686;2023-03-01T03:10:42;-0.70;99.90
56512;DHT22;42408;53.238;5.686;2023-03-01T03:13:13;-0.70;99.90
56512;DHT22;42408;53.238;5.686;2023-03-01T03:15:40;-0.70;99.90
56512;DHT22;42408;53.238;5.686;2023-03-01T03:18:08;-0.70;99.90
56512;DHT22;42408;53.238;5.686;2023-03-01T03:20:34;-0.80;99.90
56512;DHT22;42408;53.238;5.686;2023-03-01T03:23:01;-0.80;99.90
56512;DHT22;42408;53.238;5.686;2023-03-01T03:25:28;-0.80;99.90
56512;DHT22;42408;53.238;5.686;2023-03-01T03:27:55;-0.80;99.90
56512;DHT22;42408;53.238;5.686;2023-03-01T03:30:29;-0.80;99.90
56512;DHT22;42408;53.238;5.686;2023-03-01T03:32:56;-0.70;99.90
56512;DHT22;42408;53.238;5.686;2023-03-01T03:35:30;-0.70;99.90
56512;DHT22;42408;53.238;5.686;2023-03-01T03:37:57;-0.70;99.90
56512;DHT22;42408;53.238;5.686;2023-03-01T03:40:37;-0.70;99.90
56512;DHT22;42408;53.238;5.686;2023-03-01T03:43:05;-0.60;99.90
56512;DHT22;42408;53.238;5.686;2023-03-01T03:45:31;-0.60;99.90
56512;DHT22;42408;53.238;5.686;2023-03-01T03:47:59;-0.60;99.90
56512;DHT22;42408;53.238;5.686;2023-03-01T03:50:25;-0.60;99.90
56512;DHT22;42408;53.238;5.686;2023-03-01T03:52:51;-0.50;99.90
56512;DHT22;42408;53.238;5.686;2023-03-01T03:55:17;-0.50;99.90
56512;DHT22;42408;53.238;5.686;2023-03-01T03:57:46;-0.50;99.90
56512;DHT22;42408;53.238;5.686;2023-03-01T04:00:19;-0.50;99.90
56512;DHT22;42408;53.238;5.686;2023-03-01T04:02:46;-0.40;99.90
56512;DHT22;42408;53.238;5.686;2023-03-01T04:05:14;-0.40;99.90
56512;DHT22;42408;53.238;5.686;2023-03-01T04:07:41;-0.40;99.90
56512;DHT22;42408;53.238;5.686;2023-03-01T04:10:16;-0.40;99.90
56512;DHT22;42408;53.238;5.686;2023-03-01T04:12:42;-0.40;99.90
56512;DHT22;42408;53.238;5.686;2023-03-01T04:15:09;-0.40;99.90
56512;DHT22;42408;53.238;5.686;2023-03-01T04:17:45;-0.40;99.90
56512;DHT22;42408;53.238;5.686;2023-03-01T04:20:17;-0.30;99.90
56512;DHT22;42408;53.238;5.686;2023-03-01T04:22:44;-0.40;99.90
56512;DHT22;42408;53.238;5.686;2023-03-01T04:25:13;-0.30;99.90
56512;DHT22;42408;53.238;5.686;2023-03-01T04:27:40;-0.30;99.90
56512;DHT22;42408;53.238;5.686;2023-03-01T04:30:08;-0.30;99.90
56512;DHT22;42408;53.238;5.686;2023-03-01T04:32:34;-0.30;99.90
56512;DHT22;42408;53.238;5.686;2023-03-01T04:35:00;-0.40;99.90
56512;DHT22;42408;53.238;5.686;2023-03-01T04:37:26;-0.30;99.90
56512;DHT22;42408;53.238;5.686;2023-03-01T04:39:52;-0.30;99.90
56512;DHT22;42408;53.238;5.686;2023-03-01T04:42:18;-0.30;99.90
56512;DHT22;42408;53.238;5.686;2023-03-01T04:44:45;-0.40;99.90
56512;DHT22;42408;53.238;5.686;2023-03-01T04:47:10;-0.40;99.90
56512;DHT22;42408;53.238;5.686;2023-03-01T04:49:36;-0.40;99.90
56512;DHT22;42408;53.238;5.686;2023-03-01T04:52:03;-0.40;99.90
56512;DHT22;42408;53.238;5.686;2023-03-01T04:54:32;-0.40;99.90
56512;DHT22;42408;53.238;5.686;2023-03-01T04:57:00;-0.40;99.90
56512;DHT22;42408;53.238;5.686;2023-03-01T04:59:26;-0.40;99.90
56512;DHT22;42408;53.238;5.686;2023-03-01T05:01:52;-0.40;99.90
56512;DHT22;42408;53.238;5.686;2023-03-01T05:04:23;-0.40;99.90
56512;DHT22;42408;53.238;5.686;2023-03-01T05:06:49;-0.30;99.90
56512;DHT22;42408;53.238;5.686;2023-03-01T05:09:15;-0.30;99.90
56512;DHT22;42408;53.238;5.686;2023-03-01T05:11:41;-0.30;99.90
56512;DHT22;42408;53.238;5.686;2023-03-01T05:14:08;-0.30;99.90
56512;DHT22;42408;53.238;5.686;2023-03-01T05:16:35;-0.30;99.90
56512;DHT22;42408;53.238;5.686;2023-03-01T05:19:01;-0.40;99.90
56512;DHT22;42408;53.238;5.686;2023-03-01T05:21:37;-0.40;99.90
56512;DHT22;42408;53.238;5.686;2023-03-01T05:24:23;-0.50;99.90
56512;DHT22;42408;53.238;5.686;2023-03-01T05:26:49;-0.50;99.90
56512;DHT22;42408;53.238;5.686;2023-03-01T05:29:19;-0.50;99.90
56512;DHT22;42408;53.238;5.686;2023-03-01T05:31:55;-0.50;99.90
56512;DHT22;42408;53.238;5.686;2023-03-01T05:34:25;-0.50;99.90
56512;DHT22;42408;53.238;5.686;2023-03-01T05:36:52;-0.50;99.90
56512;DHT22;42408;53.238;5.686;2023-03-01T05:39:22;-0.60;99.90
56512;DHT22;42408;53.238;5.686;2023-03-01T05:41:52;-0.50;99.90
56512;DHT22;42408;53.238;5.686;2023-03-01T05:44:18;-0.50;99.90
56512;DHT22;42408;53.238;5.686;2023-03-01T05:46:43;-0.50;99.90
56512;DHT22;42408;53.238;5.686;2023-03-01T05:49:10;-0.50;99.90
56512;DHT22;42408;53.238;5.686;2023-03-01T05:51:36;-0.50;99.90
56512;DHT22;42408;53.238;5.686;2023-03-01T05:54:02;-0.50;99.90
56512;DHT22;42408;53.238;5.686;2023-03-01T05:56:28;-0.50;99.90
56512;DHT22;42408;53.238;5.686;2023-03-01T05:58:54;-0.60;99.90
56512;DHT22;42408;53.238;5.686;2023-03-01T06:01:20;-0.60;99.90
56512;DHT22;42408;53.238;5.686;2023-03-01T06:03:45;-0.60;99.90
56512;DHT22;42408;53.238;5.686;2023-03-01T06:06:11;-0.60;99.90
56512;DHT22;42408;53.238;5.686;2023-03-01T06:08:37;-0.60;99.90
56512;DHT22;42408;53.238;5.686;2023-03-01T06:11:03;-0.60;99.90
56512;DHT22;42408;53.238;5.686;2023-03-01T06:13:28;-0.60;99.90
56512;DHT22;42408;53.238;5.686;2023-03-01T06:15:55;-0.60;99.90
56512;DHT22;42408;53.238;5.686;2023-03-01T06:18:21;-0.60;99.90
56512;DHT22;42408;53.238;5.686;2023-03-01T06:20:55;-0.60;99.90
56512;DHT22;42408;53.238;5.686;2023-03-01T06:23:22;-0.70;99.90
56512;DHT22;42408;53.238;5.686;2023-03-01T06:25:48;0.70;99.90
56512;DHT22;42408;53.238;5.686;2023-03-01T06:28:13;-0.70;99.90
56512;DHT22;42408;53.238;5.686;2023-03-01T06:30:39;-0.70;99.90
56512;DHT22;42408;53.238;5.686;2023-03-01T06:33:05;-0.70;99.90
56512;DHT22;42408;53.238;5.686;2023-03-01T06:35:31;-0.70;99.90
56512;DHT22;42408;53.238;5.686;2023-03-01T06:37:58;-0.70;99.90
56512;DHT22;42408;53.238;5.686;2023-03-01T06:40:24;-0.70;99.90
56512;DHT22;42408;53.238;5.686;2023-03-01T06:42:51;-0.70;99.90
56512;DHT22;42408;53.238;5.686;2023-03-01T06:45:18;-0.70;99.90
56512;DHT22;42408;53.238;5.686;2023-03-01T06:47:45;-0.70;99.90
56512;DHT22;42408;53.238;5.686;2023-03-01T06:50:11;-0.70;99.90
56512;DHT22;42408;53.238;5.686;2023-03-01T06:52:37;-0.80;99.90
56512;DHT22;42408;53.238;5.686;2023-03-01T06:55:03;-0.70;99.90
56512;DHT22;42408;53.238;5.686;2023-03-01T06:57:29;-0.70;99.90
56512;DHT22;42408;53.238;5.686;2023-03-01T06:59:55;-0.80;99.90
56512;DHT22;42408;53.238;5.686;2023-03-01T07:02:21;-0.70;99.90
56512;DHT22;42408;53.238;5.686;2023-03-01T07:04:47;-0.70;99.90
56512;DHT22;42408;53.238;5.686;2023-03-01T07:07:13;-0.40;99.90
56512;DHT22;42408;53.238;5.686;2023-03-01T07:09:39;-0.70;99.90
56512;DHT22;42408;53.238;5.686;2023-03-01T07:12:05;-0.60;99.90
56512;DHT22;42408;53.238;5.686;2023-03-01T07:14:31;-0.60;99.90
56512;DHT22;42408;53.238;5.686;2023-03-01T07:16:56;-0.50;99.90
56512;DHT22;42408;53.238;5.686;2023-03-01T07:19:22;-0.50;99.90
56512;DHT22;42408;53.238;5.686;2023-03-01T07:21:48;-0.40;99.90
56512;DHT22;42408;53.238;5.686;2023-03-01T07:24:14;-0.40;99.90
56512;DHT22;42408;53.238;5.686;2023-03-01T07:26:40;-0.30;99.90
56512;DHT22;42408;53.238;5.686;2023-03-01T07:29:07;-0.10;99.90
56512;DHT22;42408;53.238;5.686;2023-03-01T07:31:33;0.00;99.90
56512;DHT22;42408;53.238;5.686;2023-03-01T07:33:58;0.10;99.90
56512;DHT22;42408;53.238;5.686;2023-03-01T07:36:24;0.20;99.90
56512;DHT22;42408;53.238;5.686;2023-03-01T07:38:51;0.30;99.90
56512;DHT22;42408;53.238;5.686;2023-03-01T07:41:17;0.40;99.90
56512;DHT22;42408;53.238;5.686;2023-03-01T07:43:43;0.60;99.90
56512;DHT22;42408;53.238;5.686;2023-03-01T07:46:08;0.60;99.90
56512;DHT22;42408;53.238;5.686;2023-03-01T07:48:34;0.70;99.90
56512;DHT22;42408;53.238;5.686;2023-03-01T07:51:01;0.80;99.90
56512;DHT22;42408;53.238;5.686;2023-03-01T07:53:27;0.90;99.90
56512;DHT22;42408;53.238;5.686;2023-03-01T07:56:13;0.90;99.90
56512;DHT22;42408;53.238;5.686;2023-03-01T07:58:41;1.00;99.90
56512;DHT22;42408;53.238;5.686;2023-03-01T08:01:10;1.10;99.90
56512;DHT22;42408;53.238;5.686;2023-03-01T08:03:37;1.20;99.90
56512;DHT22;42408;53.238;5.686;2023-03-01T08:06:05;1.30;99.90
56512;DHT22;42408;53.238;5.686;2023-03-01T08:08:32;1.40;99.90
56512;DHT22;42408;53.238;5.686;2023-03-01T08:10:59;1.40;99.90
56512;DHT22;42408;53.238;5.686;2023-03-01T08:13:24;1.50;99.90
56512;DHT22;42408;53.238;5.686;2023-03-01T08:15:50;1.50;99.90
56512;DHT22;42408;53.238;5.686;2023-03-01T08:18:17;1.60;99.90
56512;DHT22;42408;53.238;5.686;2023-03-01T08:20:42;1.70;99.90
56512;DHT22;42408;53.238;5.686;2023-03-01T08:23:08;1.70;99.90
56512;DHT22;42408;53.238;5.686;2023-03-01T08:25:34;1.80;99.90
56512;DHT22;42408;53.238;5.686;2023-03-01T08:28:00;1.90;99.90
56512;DHT22;42408;53.238;5.686;2023-03-01T08:30:25;2.00;99.90
56512;DHT22;42408;53.238;5.686;2023-03-01T08:32:51;2.10;99.90
56512;DHT22;42408;53.238;5.686;2023-03-01T08:35:17;2.30;99.90
56512;DHT22;42408;53.238;5.686;2023-03-01T08:37:42;2.50;99.90
56512;DHT22;42408;53.238;5.686;2023-03-01T08:40:08;2.80;99.90
56512;DHT22;42408;53.238;5.686;2023-03-01T08:42:36;3.00;99.90
56512;DHT22;42408;53.238;5.686;2023-03-01T08:45:03;3.30;99.90
56512;DHT22;42408;53.238;5.686;2023-03-01T08:47:28;3.50;99.90
56512;DHT22;42408;53.238;5.686;2023-03-01T08:49:54;3.70;99.90
56512;DHT22;42408;53.238;5.686;2023-03-01T08:52:20;4.00;99.90
56512;DHT22;42408;53.238;5.686;2023-03-01T08:54:47;4.60;99.90
56512;DHT22;42408;53.238;5.686;2023-03-01T08:57:13;4.60;99.90
56512;DHT22;42408;53.238;5.686;2023-03-01T08:59:39;4.80;99.90
56512;DHT22;42408;53.238;5.686;2023-03-01T09:02:08;5.00;99.90
56512;DHT22;42408;53.238;5.686;2023-03-01T09:04:35;5.20;99.90
56512;DHT22;42408;53.238;5.686;2023-03-01T09:07:01;5.30;99.90
56512;DHT22;42408;53.238;5.686;2023-03-01T09:09:26;5.40;99.90
56512;DHT22;42408;53.238;5.686;2023-03-01T09:11:52;5.60;99.90
56512;DHT22;42408;53.238;5.686;2023-03-01T09:14:18;5.80;99.90
56512;DHT22;42408;53.238;5.686;2023-03-01T09:16:44;5.90;99.90
56512;DHT22;42408;53.238;5.686;2023-03-01T09:19:10;6.00;99.90
56512;DHT22;42408;53.238;5.686;2023-03-01T09:21:37;6.20;99.90
56512;DHT22;42408;53.238;5.686;2023-03-01T09:24:03;6.40;99.90
56512;DHT22;42408;53.238;5.686;2023-03-01T09:26:29;6.50;99.90
56512;DHT22;42408;53.238;5.686;2023-03-01T09:28:55;6.60;99.90
56512;DHT22;42408;53.238;5.686;2023-03-01T09:31:23;6.80;99.90
56512;DHT22;42408;53.238;5.686;2023-03-01T09:33:51;7.00;99.90
56512;DHT22;42408;53.238;5.686;2023-03-01T09:36:19;7.10;99.90
56512;DHT22;42408;53.238;5.686;2023-03-01T09:38:46;7.30;99.90
56512;DHT22;42408;53.238;5.686;2023-03-01T09:41:59;7.40;99.90
56512;DHT22;42408;53.238;5.686;2023-03-01T09:46:48;7.70;99.90
56512;DHT22;42408;53.238;5.686;2023-03-01T09:49:21;7.80;99.90
56512;DHT22;42408;53.238;5.686;2023-03-01T09:54:23;8.00;99.90
56512;DHT22;42408;53.238;5.686;2023-03-01T10:02:45;8.30;99.90
56512;DHT22;42408;53.238;5.686;2023-03-01T10:08:06;8.50;99.90
56512;DHT22;42408;53.238;5.686;2023-03-01T10:10:44;8.70;99.90
56512;DHT22;42408;53.238;5.686;2023-03-01T10:15:55;8.80;99.90
56512;DHT22;42408;53.238;5.686;2023-03-01T10:18:26;8.90;99.90
56512;DHT22;42408;53.238;5.686;2023-03-01T10:21:02;8.90;99.90
56512;DHT22;42408;53.238;5.686;2023-03-01T10:23:34;9.00;99.90
56512;DHT22;42408;53.238;5.686;2023-03-01T10:28:59;9.10;99.90
56512;DHT22;42408;53.238;5.686;2023-03-01T10:31:43;9.20;99.90
56512;DHT22;42408;53.238;5.686;2023-03-01T10:34:16;9.30;99.90
56512;DHT22;42408;53.238;5.686;2023-03-01T10:36:44;9.40;99.90
56512;DHT22;42408;53.238;5.686;2023-03-01T10:39:21;9.40;99.90
56512;DHT22;42408;53.238;5.686;2023-03-01T10:42:00;9.50;99.90
56512;DHT22;42408;53.238;5.686;2023-03-01T10:44:43;9.60;99.90
56512;DHT22;42408;53.238;5.686;2023-03-01T10:47:18;9.60;99.90
56512;DHT22;42408;53.238;5.686;2023-03-01T10:49:59;9.50;99.90
56512;DHT22;42408;53.238;5.686;2023-03-01T10:52:29;9.70;99.90
56512;DHT22;42408;53.238;5.686;2023-03-01T10:55:17;9.60;99.90
56512;DHT22;42408;53.238;5.686;2023-03-01T10:57:46;9.60;99.90
56512;DHT22;42408;53.238;5.686;2023-03-01T11:02:50;9.80;99.90
56512;DHT22;42408;53.238;5.686;2023-03-01T11:05:20;9.80;99.90
56512;DHT22;42408;53.238;5.686;2023-03-01T11:07:59;9.80;99.90
56512;DHT22;42408;53.238;5.686;2023-03-01T11:10:27;9.90;99.90
56512;DHT22;42408;53.238;5.686;2023-03-01T11:13:05;9.90;99.90
56512;DHT22;42408;53.238;5.686;2023-03-01T11:15:31;10.00;99.90
56512;DHT22;42408;53.238;5.686;2023-03-01T11:17:57;10.00;99.90
56512;DHT22;42408;53.238;5.686;2023-03-01T11:20:35;10.00;99.90
56512;DHT22;42408;53.238;5.686;2023-03-01T11:23:08;10.00;99.90
56512;DHT22;42408;53.238;5.686;2023-03-01T11:25:42;10.00;99.90
56512;DHT22;42408;53.238;5.686;2023-03-01T11:28:13;10.00;99.90
56512;DHT22;42408;53.238;5.686;2023-03-01T11:33:34;10.20;99.90
56512;DHT22;42408;53.238;5.686;2023-03-01T11:38:35;10.20;99.90
56512;DHT22;42408;53.238;5.686;2023-03-01T11:52:15;10.30;99.90
56512;DHT22;42408;53.238;5.686;2023-03-01T12:14:40;10.30;99.90
56512;DHT22;42408;53.238;5.686;2023-03-01T12:25:20;10.40;99.90
56512;DHT22;42408;53.238;5.686;2023-03-01T12:27:50;10.40;99.90
56512;DHT22;42408;53.238;5.686;2023-03-01T12:41:34;10.50;99.90
56512;DHT22;42408;53.238;5.686;2023-03-01T12:52:41;10.60;99.90
56512;DHT22;42408;53.238;5.686;2023-03-01T12:55:29;10.60;99.90
56512;DHT22;42408;53.238;5.686;2023-03-01T13:00:32;10.50;99.90
56512;DHT22;42408;53.238;5.686;2023-03-01T13:08:16;10.50;99.90
56512;DHT22;42408;53.238;5.686;2023-03-01T13:11:00;10.60;99.90
56512;DHT22;42408;53.238;5.686;2023-03-01T13:13:27;10.70;99.90
56512;DHT22;42408;53.238;5.686;2023-03-01T13:15:54;10.70;99.90
56512;DHT22;42408;53.238;5.686;2023-03-01T13:20:50;10.60;99.90
56512;DHT22;42408;53.238;5.686;2023-03-01T13:31:01;10.80;99.90
56512;DHT22;42408;53.238;5.686;2023-03-01T13:41:49;10.80;99.90
56512;DHT22;42408;53.238;5.686;2023-03-01T13:44:25;10.80;99.90
56512;DHT22;42408;53.238;5.686;2023-03-01T13:47:37;10.80;99.90
56512;DHT22;42408;53.238;5.686;2023-03-01T13:50:03;10.80;99.90
56512;DHT22;42408;53.238;5.686;2023-03-01T13:55:00;10.70;99.90
56512;DHT22;42408;53.238;5.686;2023-03-01T13:57:34;10.70;99.90
56512;DHT22;42408;53.238;5.686;2023-03-01T14:00:01;10.70;99.90
56512;DHT22;42408;53.238;5.686;2023-03-01T14:02:28;10.70;99.90
56512;DHT22;42408;53.238;5.686;2023-03-01T14:04:58;10.70;99.90
56512;DHT22;42408;53.238;5.686;2023-03-01T14:07:24;10.70;99.90
56512;DHT22;42408;53.238;5.686;2023-03-01T14:09:59;10.90;99.90
56512;DHT22;42408;53.238;5.686;2023-03-01T14:15:29;10.80;99.90
56512;DHT22;42408;53.238;5.686;2023-03-01T14:20:32;10.80;99.90
56512;DHT22;42408;53.238;5.686;2023-03-01T14:23:07;10.90;99.90
56512;DHT22;42408;53.238;5.686;2023-03-01T14:25:36;10.80;99.90
56512;DHT22;42408;53.238;5.686;2023-03-01T14:28:53;10.70;99.90
56512;DHT22;42408;53.238;5.686;2023-03-01T14:31:29;10.60;99.90
56512;DHT22;42408;53.238;5.686;2023-03-01T14:33:55;10.50;99.90
56512;DHT22;42408;53.238;5.686;2023-03-01T14:36:27;10.50;99.90
56512;DHT22;42408;53.238;5.686;2023-03-01T14:38:53;10.50;99.90
56512;DHT22;42408;53.238;5.686;2023-03-01T14:41:24;10.40;99.90
56512;DHT22;42408;53.238;5.686;2023-03-01T14:43:56;10.50;99.90
56512;DHT22;42408;53.238;5.686;2023-03-01T14:49:21;10.30;99.90
56512;DHT22;42408;53.238;5.686;2023-03-01T14:52:03;10.20;99.90
56512;DHT22;42408;53.238;5.686;2023-03-01T14:54:42;10.20;99.90
56512;DHT22;42408;53.238;5.686;2023-03-01T14:57:17;10.20;99.90
56512;DHT22;42408;53.238;5.686;2023-03-01T14:59:43;10.20;99.90
56512;DHT22;42408;53.238;5.686;2023-03-01T15:02:20;10.20;99.90
56512;DHT22;42408;53.238;5.686;2023-03-01T15:04:52;10.20;99.90
56512;DHT22;42408;53.238;5.686;2023-03-01T15:07:19;10.20;99.90
56512;DHT22;42408;53.238;5.686;2023-03-01T15:09:45;10.10;99.90
56512;DHT22;42408;53.238;5.686;2023-03-01T15:14:54;10.00;99.90
56512;DHT22;42408;53.238;5.686;2023-03-01T15:17:34;10.00;99.90
56512;DHT22;42408;53.238;5.686;2023-03-01T15:20:04;9.80;99.90
56512;DHT22;42408;53.238;5.686;2023-03-01T15:22:31;9.70;99.90
56512;DHT22;42408;53.238;5.686;2023-03-01T15:24:57;9.80;99.90
56512;DHT22;42408;53.238;5.686;2023-03-01T15:27:24;9.70;99.90
56512;DHT22;42408;53.238;5.686;2023-03-01T15:29:53;9.70;99.90
56512;DHT22;42408;53.238;5.686;2023-03-01T15:32:32;9.70;99.90
56512;DHT22;42408;53.238;5.686;2023-03-01T15:35:32;9.70;99.90
56512;DHT22;42408;53.238;5.686;2023-03-01T15:37:48;9.50;99.90
56512;DHT22;42408;53.238;5.686;2023-03-01T15:40:32;9.50;99.90
56512;DHT22;42408;53.238;5.686;2023-03-01T15:43:03;9.50;99.90
56512;DHT22;42408;53.238;5.686;2023-03-01T15:45:31;9.40;99.90
56512;DHT22;42408;53.238;5.686;2023-03-01T15:48:04;9.10;99.90
56512;DHT22;42408;53.238;5.686;2023-03-01T15:50:34;8.90;99.90
56512;DHT22;42408;53.238;5.686;2023-03-01T15:53:04;8.70;99.90
56512;DHT22;42408;53.238;5.686;2023-03-01T15:55:32;8.60;99.90
56512;DHT22;42408;53.238;5.686;2023-03-01T16:00:32;8.50;99.90
56512;DHT22;42408;53.238;5.686;2023-03-01T16:02:58;8.30;99.90
56512;DHT22;42408;53.238;5.686;2023-03-01T16:05:27;8.20;99.90
56512;DHT22;42408;53.238;5.686;2023-03-01T16:07:53;8.00;99.90
56512;DHT22;42408;53.238;5.686;2023-03-01T16:10:20;7.90;99.90
56512;DHT22;42408;53.238;5.686;2023-03-01T16:12:45;7.80;99.90
56512;DHT22;42408;53.238;5.686;2023-03-01T16:15:20;7.70;99.90
56512;DHT22;42408;53.238;5.686;2023-03-01T16:17:47;7.60;99.90
56512;DHT22;42408;53.238;5.686;2023-03-01T16:20:13;7.50;99.90
56512;DHT22;42408;53.238;5.686;2023-03-01T16:22:41;7.40;99.90
56512;DHT22;42408;53.238;5.686;2023-03-01T16:25:12;7.30;99.90
56512;DHT22;42408;53.238;5.686;2023-03-01T16:27:38;7.30;99.90
56512;DHT22;42408;53.238;5.686;2023-03-01T16:30:05;7.20;99.90
56512;DHT22;42408;53.238;5.686;2023-03-01T16:32:31;7.10;99.90
56512;DHT22;42408;53.238;5.686;2023-03-01T16:34:57;7.10;99.90
56512;DHT22;42408;53.238;5.686;2023-03-01T16:37:23;7.00;99.90
56512;DHT22;42408;53.238;5.686;2023-03-01T16:39:48;7.00;99.90
56512;DHT22;42408;53.238;5.686;2023-03-01T16:42:17;6.90;99.90
56512;DHT22;42408;53.238;5.686;2023-03-01T16:44:43;6.80;99.90
56512;DHT22;42408;53.238;5.686;2023-03-01T16:47:08;6.70;99.90
56512;DHT22;42408;53.238;5.686;2023-03-01T16:49:34;6.70;99.90
56512;DHT22;42408;53.238;5.686;2023-03-01T16:52:00;6.60;99.90
56512;DHT22;42408;53.238;5.686;2023-03-01T16:54:25;6.50;99.90
56512;DHT22;42408;53.238;5.686;2023-03-01T16:56:51;6.50;99.90
56512;DHT22;42408;53.238;5.686;2023-03-01T16:59:17;6.30;99.90
56512;DHT22;42408;53.238;5.686;2023-03-01T17:01:44;6.30;99.90
56512;DHT22;42408;53.238;5.686;2023-03-01T17:04:11;6.20;99.90
56512;DHT22;42408;53.238;5.686;2023-03-01T17:06:37;6.10;99.90
56512;DHT22;42408;53.238;5.686;2023-03-01T17:09:03;6.10;99.90
56512;DHT22;42408;53.238;5.686;2023-03-01T17:11:29;6.10;99.90
56512;DHT22;42408;53.238;5.686;2023-03-01T17:13:55;6.00;99.90
56512;DHT22;42408;53.238;5.686;2023-03-01T17:16:21;5.90;99.90
56512;DHT22;42408;53.238;5.686;2023-03-01T17:18:47;5.90;99.90
56512;DHT22;42408;53.238;5.686;2023-03-01T17:21:13;5.80;99.90
56512;DHT22;42408;53.238;5.686;2023-03-01T17:23:41;5.80;99.90
56512;DHT22;42408;53.238;5.686;2023-03-01T17:26:07;5.80;99.90
56512;DHT22;42408;53.238;5.686;2023-03-01T17:28:36;5.70;99.90
56512;DHT22;42408;53.238;5.686;2023-03-01T17:31:03;5.70;99.90
56512;DHT22;42408;53.238;5.686;2023-03-01T17:33:29;5.70;99.90
56512;DHT22;42408;53.238;5.686;2023-03-01T17:35:56;5.60;99.90
56512;DHT22;42408;53.238;5.686;2023-03-01T17:38:22;5.50;99.90
56512;DHT22;42408;53.238;5.686;2023-03-01T17:40:48;5.50;99.90
56512;DHT22;42408;53.238;5.686;2023-03-01T17:43:15;5.40;99.90
56512;DHT22;42408;53.238;5.686;2023-03-01T17:45:41;5.30;99.90
56512;DHT22;42408;53.238;5.686;2023-03-01T17:48:12;5.30;99.90
56512;DHT22;42408;53.238;5.686;2023-03-01T17:50:38;5.20;99.90
56512;DHT22;42408;53.238;5.686;2023-03-01T17:53:05;5.30;99.90
56512;DHT22;42408;53.238;5.686;2023-03-01T17:55:35;5.30;99.90
56512;DHT22;42408;53.238;5.686;2023-03-01T17:58:02;5.20;99.90
56512;DHT22;42408;53.238;5.686;2023-03-01T18:00:28;5.20;99.90
56512;DHT22;42408;53.238;5.686;2023-03-01T18:02:54;5.20;99.90
56512;DHT22;42408;53.238;5.686;2023-03-01T18:05:19;5.10;99.90
56512;DHT22;42408;53.238;5.686;2023-03-01T18:07:45;5.10;99.90